createdAt,value
2022-08-14T14:18:29.675Z,33.40
2022-08-14T14:23:38.176Z,32.80
2022-08-14T14:26:21.774Z,32.60
2022-08-14T14:28:56.555Z,32.70
2022-08-14T14:31:29.724Z,32.60
2022-08-14T14:34:07.561Z,32.40
2022-08-14T14:39:20.055Z,32.30
2022-08-14T14:41:56.272Z,32.10
2022-08-14T14:44:33.148Z,32.10
2022-08-14T14:49:41.855Z,32.40
2022-08-14T14:52:27.076Z,32.70
2022-08-14T14:55:01.401Z,32.70
2022-08-14T14:57:35.333Z,32.80
2022-08-14T15:00:18.555Z,32.70
2022-08-14T15:02:57.738Z,32.50
2022-08-14T15:05:28.514Z,32.20
2022-08-14T15:07:59.674Z,32.20
2022-08-14T15:10:34.186Z,32.30
2022-08-14T15:13:05.276Z,32.50
2022-08-14T15:15:36.877Z,32.70
2022-08-14T15:18:36.312Z,33.00
2022-08-14T15:21:02.648Z,33.00
2022-08-14T15:23:44.391Z,33.10
2022-08-14T15:26:23.718Z,33.30
2022-08-14T15:31:37.053Z,33.90
2022-08-14T15:34:43.402Z,33.90
2022-08-14T15:36:58.646Z,33.70
2022-08-14T15:39:29.591Z,33.70
2022-08-14T15:42:03.032Z,33.00
2022-08-14T15:44:34.337Z,32.70
2022-08-14T15:47:07.234Z,32.80
2022-08-14T15:49:35.134Z,33.20
2022-08-14T15:52:05.057Z,33.20
2022-08-14T15:54:37.367Z,33.30
2022-08-14T15:57:08.683Z,33.40
2022-08-14T15:59:56.254Z,34.20
2022-08-14T16:02:24.536Z,34.60
2022-08-14T16:04:55.087Z,34.80
2022-08-14T16:07:26.982Z,34.80
2022-08-14T16:10:25.390Z,34.70
2022-08-14T16:12:46.606Z,34.10
2022-08-14T16:15:18.126Z,33.80
2022-08-14T16:17:46.677Z,33.70
2022-08-14T16:20:41.828Z,33.40
2022-08-14T16:23:10.381Z,32.90
2022-08-14T16:25:42.766Z,32.30
2022-08-14T16:28:10.552Z,32.20
2022-08-14T16:30:54.383Z,32.10
2022-08-14T16:33:27.935Z,31.90
2022-08-14T16:36:19.730Z,31.80
2022-08-14T16:39:00.002Z,31.70
2022-08-14T16:41:27.876Z,31.60
2022-08-14T16:46:38.263Z,31.50
2022-08-14T16:49:19.246Z,31.60
2022-08-14T16:51:52.742Z,31.60
2022-08-14T16:54:34.648Z,31.40
2022-08-14T16:57:23.548Z,31.40
2022-08-14T16:59:57.610Z,31.40
2022-08-14T17:02:59.741Z,31.40
2022-08-14T17:05:29.214Z,31.30
2022-08-14T17:08:23.986Z,31.40
2022-08-14T17:10:50.879Z,31.60
2022-08-14T17:13:59.511Z,31.60
2022-08-14T17:16:24.555Z,31.70
2022-08-14T17:19:00.671Z,31.70
2022-08-14T17:21:40.888Z,31.50
2022-08-14T17:24:57.343Z,31.40
2022-08-14T17:27:03.722Z,31.60
2022-08-14T17:29:34.947Z,31.80
2022-08-14T17:32:28.031Z,31.70
2022-08-14T17:34:57.964Z,31.70
2022-08-14T17:37:45.113Z,31.70
2022-08-14T17:40:15.281Z,31.50
2022-08-14T17:42:51.093Z,31.20
2022-08-14T17:45:28.101Z,31.00
2022-08-14T17:47:59.086Z,30.80
2022-08-14T17:50:59.607Z,30.60
2022-08-14T17:53:27.716Z,30.50
2022-08-14T17:56:00.891Z,30.30
2022-08-14T17:58:41.736Z,30.20
2022-08-14T18:01:13.746Z,30.00
2022-08-14T18:03:46.441Z,29.90
2022-08-14T18:06:39.626Z,29.80
2022-08-14T18:09:25.234Z,29.70
2022-08-14T18:11:55.446Z,29.40
2022-08-14T18:14:32.060Z,29.20
2022-08-14T18:17:02.192Z,29.10
2022-08-14T18:19:31.345Z,28.90
2022-08-14T18:22:05.801Z,28.80
2022-08-14T18:24:52.789Z,28.70
2022-08-14T18:27:23.430Z,28.60
2022-08-14T18:29:55.140Z,28.50
2022-08-14T18:32:31.574Z,28.40
2022-08-14T18:35:11.415Z,28.20
2022-08-14T18:37:42.083Z,28.00
2022-08-14T18:40:34.291Z,27.80
2022-08-14T18:43:04.847Z,27.60
2022-08-14T18:45:34.213Z,27.60
2022-08-14T18:48:21.052Z,27.50
2022-08-14T18:51:05.732Z,27.40
2022-08-14T18:53:54.107Z,27.30
2022-08-14T18:56:57.968Z,27.10
2022-08-14T18:59:39.372Z,27.00
2022-08-14T19:02:30.673Z,26.90
2022-08-14T19:05:02.824Z,26.80
2022-08-14T19:07:33.975Z,26.70
2022-08-14T19:10:06.949Z,26.70
2022-08-14T19:12:52.987Z,26.70
2022-08-14T19:15:26.049Z,26.60
2022-08-14T19:18:14.179Z,26.60
2022-08-14T19:20:55.671Z,26.60
2022-08-14T19:23:40.664Z,26.60
2022-08-14T19:26:35.743Z,26.60
2022-08-14T19:29:38.192Z,26.60
2022-08-14T19:32:36.560Z,26.60
2022-08-14T19:35:16.938Z,26.50
2022-08-14T19:37:52.748Z,26.50
2022-08-14T19:40:33.830Z,26.60
2022-08-14T19:43:01.999Z,26.50
2022-08-14T19:45:33.760Z,26.50
2022-08-14T19:48:02.509Z,26.50
2022-08-14T19:50:40.209Z,26.40
2022-08-14T19:53:16.546Z,26.40
2022-08-14T19:55:47.606Z,26.30
2022-08-14T19:58:15.708Z,26.30
2022-08-14T20:00:52.653Z,26.30
2022-08-14T20:03:24.026Z,26.40
2022-08-14T20:06:05.809Z,26.30
2022-08-14T20:10:59.816Z,26.30
2022-08-14T20:12:00.309Z,26.30
2022-08-14T20:14:27.929Z,26.30
2022-08-14T20:17:05.571Z,26.30
2022-08-14T20:19:37.827Z,26.30
2022-08-14T20:22:37.354Z,26.30
2022-08-14T20:25:15.376Z,26.30
2022-08-14T20:27:44.315Z,26.20
2022-08-14T20:30:34.701Z,26.20
2022-08-14T20:33:11.296Z,26.20
2022-08-14T20:39:15.239Z,26.20
2022-08-14T20:41:49.858Z,26.20
2022-08-14T20:44:43.347Z,26.20
2022-08-14T20:47:16.417Z,26.10
2022-08-14T20:49:43.901Z,26.00
2022-08-14T20:52:19.154Z,26.00
2022-08-14T20:54:51.673Z,25.90
2022-08-14T20:57:19.737Z,26.00
2022-08-14T20:59:53.315Z,26.00
2022-08-14T21:02:38.616Z,26.00
2022-08-14T21:05:17.343Z,25.90
2022-08-14T21:07:51.077Z,25.90
2022-08-14T21:10:35.791Z,25.80
2022-08-14T21:13:25.787Z,25.80
2022-08-14T21:15:56.814Z,25.70
2022-08-14T21:18:33.861Z,25.70
2022-08-14T21:21:07.034Z,25.60
2022-08-14T21:23:55.225Z,25.60
2022-08-14T21:26:51.099Z,25.60
2022-08-14T21:29:14.738Z,25.50
2022-08-14T21:31:42.862Z,25.60
2022-08-14T21:34:27.354Z,25.50
2022-08-14T21:37:07.732Z,25.50
2022-08-14T21:39:36.231Z,25.40
2022-08-14T21:42:05.998Z,25.40
2022-08-14T21:44:42.991Z,25.50
2022-08-14T21:47:12.894Z,25.50
2022-08-14T21:49:43.008Z,25.50
2022-08-14T21:52:50.532Z,25.40
2022-08-14T21:55:10.448Z,25.40
2022-08-14T21:58:45.817Z,25.50
2022-08-14T22:00:42.212Z,25.50
2022-08-14T22:03:14.383Z,25.50
2022-08-14T22:05:42.135Z,25.50
2022-08-14T22:08:13.930Z,25.50
2022-08-14T22:10:46.515Z,25.50
2022-08-14T22:13:19.610Z,25.50
2022-08-14T22:15:50.024Z,25.60
2022-08-14T22:18:21.015Z,25.60
2022-08-14T22:20:53.482Z,25.60
2022-08-14T22:23:23.071Z,25.60
2022-08-14T22:25:51.264Z,25.50
2022-08-14T22:28:33.264Z,25.40
2022-08-14T22:31:10.476Z,25.40
2022-08-14T22:33:38.609Z,25.40
2022-08-14T22:36:26.468Z,25.30
2022-08-14T22:38:54.628Z,25.20
2022-08-14T22:41:26.216Z,25.20
2022-08-14T22:44:03.577Z,25.20
2022-08-14T22:46:30.962Z,25.20
2022-08-14T22:48:58.278Z,25.20
2022-08-14T22:51:27.638Z,25.10
2022-08-14T22:53:58.372Z,25.10
2022-08-14T22:56:30.147Z,25.00
2022-08-14T22:59:04.078Z,25.00
2022-08-14T23:01:56.108Z,24.90
2022-08-14T23:04:35.667Z,24.80
2022-08-14T23:07:22.713Z,24.80
2022-08-14T23:09:56.826Z,24.60
2022-08-14T23:12:28.581Z,24.60
2022-08-14T23:14:56.519Z,24.60
2022-08-14T23:17:23.559Z,24.60
2022-08-14T23:19:56.463Z,24.70
2022-08-14T23:22:26.055Z,24.60
2022-08-14T23:24:57.755Z,24.60
2022-08-14T23:28:03.732Z,24.60
2022-08-14T23:30:33.928Z,24.50
2022-08-14T23:33:02.057Z,24.40
2022-08-14T23:35:29.238Z,24.50
2022-08-14T23:38:02.017Z,24.50
2022-08-14T23:40:30.806Z,24.50
2022-08-14T23:43:08.091Z,24.50
2022-08-14T23:45:39.546Z,24.50
2022-08-14T23:48:12.601Z,24.50
2022-08-14T23:50:41.863Z,24.50
2022-08-14T23:53:47.643Z,24.50
2022-08-14T23:56:30.259Z,24.50
2022-08-14T23:59:01.278Z,24.40
